Time;durP1;ratioP1;P1;durP2;ratioP2;P2;SDS_P1;SDS_P2;PMS_P1;PMS_P2;Temp;Humidity;BMP_temperature;BMP_pressure;BME280_temperature;BME280_humidity;BME280_pressure;Samples;Min_cycle;Max_cycle;Signal;HPM_P1;HPM_P2
2023/12/28 00:01:07;;;;;;;15.27;9.67;;;0.90;99.90;;;;;;4952747;28;20657;-73
2023/12/28 00:03:34;;;;;;;11.00;8.93;;;0.90;99.90;;;;;;4953924;29;20249;-73
2023/12/28 00:06:01;;;;;;;11.43;9.23;;;0.80;99.90;;;;;;4954008;29;20280;-73
2023/12/28 00:08:29;;;;;;;12.00;8.90;;;0.80;99.90;;;;;;4954217;29;20209;-73
2023/12/28 00:10:55;;;;;;;12.80;8.30;;;0.80;99.90;;;;;;4954223;29;20205;-73
2023/12/28 00:13:22;;;;;;;14.40;9.07;;;0.90;99.90;;;;;;4953566;29;20197;-74
2023/12/28 00:15:48;;;;;;;13.60;9.00;;;1.00;99.90;;;;;;4954009;29;20205;-72
2023/12/28 00:18:15;;;;;;;18.47;9.80;;;1.00;99.90;;;;;;4953698;29;20280;-72
2023/12/28 00:20:42;;;;;;;12.90;9.00;;;1.00;99.90;;;;;;4953810;29;20751;-73
2023/12/28 00:23:08;;;;;;;12.93;8.57;;;1.00;99.90;;;;;;4953569;29;20264;-73
2023/12/28 00:25:36;;;;;;;15.20;8.63;;;1.00;99.90;;;;;;4953276;29;20205;-73
2023/12/28 00:28:04;;;;;;;11.17;8.63;;;1.00;99.90;;;;;;4953578;29;20228;-74
2023/12/28 00:30:32;;;;;;;11.00;7.70;;;1.00;99.90;;;;;;4953884;29;20244;-74
2023/12/28 00:32:58;;;;;;;13.37;8.23;;;0.90;99.90;;;;;;4953481;29;20679;-73
2023/12/28 00:35:25;;;;;;;11.13;8.50;;;0.90;99.90;;;;;;4953424;29;20256;-74
2023/12/28 00:37:52;;;;;;;11.17;8.13;;;0.80;99.90;;;;;;4953164;29;20225;-74
2023/12/28 00:40:18;;;;;;;12.00;8.03;;;0.80;99.90;;;;;;4953421;29;20661;-73
2023/12/28 00:42:46;;;;;;;12.93;8.90;;;0.70;99.90;;;;;;4953119;29;20288;-73
2023/12/28 00:45:13;;;;;;;10.90;8.57;;;0.70;99.90;;;;;;4953164;29;20205;-73
2023/12/28 00:47:42;;;;;;;12.27;8.73;;;0.70;99.90;;;;;;4953162;29;20205;-73
2023/12/28 00:50:11;;;;;;;12.73;8.63;;;0.70;99.90;;;;;;4953007;29;20201;-73
2023/12/28 00:52:38;;;;;;;10.23;7.57;;;0.70;99.90;;;;;;4953141;29;20669;-73
2023/12/28 00:55:05;;;;;;;12.50;8.53;;;0.60;99.90;;;;;;4952823;29;20534;-73
2023/12/28 00:57:32;;;;;;;12.77;8.53;;;0.60;99.90;;;;;;4952961;29;20201;-73
2023/12/28 01:00:00;;;;;;;11.70;8.47;;;0.50;99.90;;;;;;4952992;29;20669;-73
2023/12/28 01:02:27;;;;;;;9.87;7.10;;;0.60;99.90;;;;;;4955081;29;20256;-73
2023/12/28 01:04:53;;;;;;;10.30;8.30;;;0.60;99.90;;;;;;4955583;29;20201;-73
2023/12/28 01:07:20;;;;;;;11.23;7.60;;;0.70;99.90;;;;;;4956147;29;20542;-72
2023/12/28 01:09:47;;;;;;;11.77;7.90;;;0.70;99.90;;;;;;4956040;29;20209;-73
2023/12/28 01:12:13;;;;;;;8.40;7.50;;;0.70;99.90;;;;;;4954088;28;20200;-73
2023/12/28 01:14:40;;;;;;;9.23;7.37;;;0.70;99.90;;;;;;4955819;29;20205;-73
2023/12/28 01:17:08;;;;;;;9.87;7.87;;;0.70;99.90;;;;;;4955730;29;20205;-73
2023/12/28 01:19:35;;;;;;;8.40;6.60;;;0.70;99.90;;;;;;4955906;29;20260;-73
2023/12/28 01:22:01;;;;;;;10.20;7.40;;;0.80;99.90;;;;;;4955741;29;20197;-73
2023/12/28 01:24:28;;;;;;;8.93;6.70;;;0.80;99.90;;;;;;4955684;29;20210;-72
2023/12/28 01:26:54;;;;;;;8.57;6.23;;;0.80;99.90;;;;;;4955699;29;20205;-73
2023/12/28 01:29:21;;;;;;;11.30;7.50;;;0.90;99.90;;;;;;4955494;29;20205;-73
2023/12/28 01:31:48;;;;;;;10.97;8.27;;;1.00;99.90;;;;;;4955712;29;20201;-72
2023/12/28 01:34:16;;;;;;;14.73;8.53;;;0.90;99.90;;;;;;4955578;29;20208;-73
2023/12/28 01:36:44;;;;;;;10.00;7.17;;;0.90;99.90;;;;;;4955554;29;20268;-73
2023/12/28 01:39:11;;;;;;;10.03;7.00;;;1.00;99.90;;;;;;4963329;29;20711;-73
2023/12/28 01:41:38;;;;;;;9.33;6.73;;;1.00;99.90;;;;;;4955042;29;20761;-73
2023/12/28 01:44:05;;;;;;;10.00;6.40;;;1.00;99.90;;;;;;4955227;29;20205;-73
2023/12/28 01:46:32;;;;;;;9.33;6.23;;;1.00;99.90;;;;;;4955505;29;20233;-73
2023/12/28 01:48:59;;;;;;;7.77;6.83;;;1.00;99.90;;;;;;4955447;29;20201;-73
2023/12/28 01:51:27;;;;;;;9.57;6.50;;;1.10;99.90;;;;;;4955248;29;20661;-73
2023/12/28 01:53:54;;;;;;;9.83;5.50;;;1.10;99.90;;;;;;4955093;29;20601;-74
2023/12/28 01:56:21;;;;;;;8.77;6.47;;;1.20;99.90;;;;;;4955049;29;20289;-73
2023/12/28 01:58:50;;;;;;;13.73;6.53;;;1.20;99.90;;;;;;4955159;29;20224;-73
2023/12/28 02:01:18;;;;;;;10.13;6.33;;;1.10;99.90;;;;;;4955239;29;20278;-73
2023/12/28 02:03:45;;;;;;;9.13;7.00;;;1.10;99.90;;;;;;4954901;29;20197;-73
2023/12/28 02:06:13;;;;;;;9.10;6.40;;;1.10;99.90;;;;;;4954800;29;20653;-72
2023/12/28 02:08:40;;;;;;;10.50;6.37;;;1.10;99.90;;;;;;4955024;29;20209;-73
2023/12/28 02:11:07;;;;;;;10.33;5.73;;;1.20;99.90;;;;;;4954877;29;20201;-73
2023/12/28 02:13:34;;;;;;;10.57;6.10;;;1.20;99.90;;;;;;4954627;29;20593;-73
2023/12/28 02:16:07;;;;;;;8.43;5.93;;;1.20;99.90;;;;;;4954773;29;20602;-73
2023/12/28 02:18:39;;;;;;;9.70;5.73;;;1.30;99.90;;;;;;4954838;29;20229;-74
2023/12/28 02:21:07;;;;;;;7.30;5.83;;;1.30;99.90;;;;;;4954760;29;20247;-74
2023/12/28 02:23:34;;;;;;;7.20;5.43;;;1.40;99.90;;;;;;4954566;28;20224;-73
2023/12/28 02:26:02;;;;;;;8.90;5.70;;;1.50;99.90;;;;;;4954253;29;20282;-73
2023/12/28 02:28:29;;;;;;;6.53;5.30;;;1.60;99.90;;;;;;4954764;29;20201;-73
2023/12/28 02:30:55;;;;;;;7.40;5.30;;;1.60;99.90;;;;;;4954799;29;20252;-72
2023/12/28 02:33:29;;;;;;;7.60;5.47;;;1.70;99.90;;;;;;4954742;29;20227;-72
2023/12/28 02:36:00;;;;;;;8.43;5.60;;;1.70;99.90;;;;;;4954587;29;20200;-73
2023/12/28 02:38:30;;;;;;;9.30;5.60;;;1.70;99.90;;;;;;4954768;29;20239;-73
2023/12/28 02:40:58;;;;;;;6.63;5.50;;;1.60;99.90;;;;;;4954723;29;20201;-72
2023/12/28 02:43:26;;;;;;;7.17;5.50;;;1.60;99.90;;;;;;4954320;29;20629;-72
2023/12/28 02:45:53;;;;;;;6.87;5.17;;;1.50;99.90;;;;;;4954586;29;20248;-73
2023/12/28 02:48:19;;;;;;;8.97;5.90;;;1.40;99.90;;;;;;4954532;29;20561;-72
2023/12/28 02:50:46;;;;;;;8.03;5.60;;;1.30;99.90;;;;;;4954491;29;20205;-73
2023/12/28 02:53:13;;;;;;;8.70;5.80;;;1.30;99.90;;;;;;4954648;29;20236;-72
2023/12/28 02:55:40;;;;;;;7.67;5.87;;;1.30;99.90;;;;;;4954352;29;20720;-73
2023/12/28 02:58:06;;;;;;;7.20;5.27;;;1.20;99.90;;;;;;4954432;29;20260;-73
2023/12/28 03:00:34;;;;;;;6.37;4.77;;;1.30;99.90;;;;;;4954465;29;20209;-72
2023/12/28 03:03:01;;;;;;;6.40;4.93;;;1.20;99.90;;;;;;4954427;29;20248;-72
2023/12/28 03:05:28;;;;;;;5.97;4.90;;;1.10;99.90;;;;;;4954274;29;20201;-72
2023/12/28 03:07:55;;;;;;;8.73;5.13;;;1.00;99.90;;;;;;4954303;29;20201;-72
2023/12/28 03:10:22;;;;;;;6.83;5.33;;;1.00;99.90;;;;;;4954302;29;20243;-72
2023/12/28 03:12:48;;;;;;;5.97;4.97;;;1.00;99.90;;;;;;4954408;29;20236;-72
2023/12/28 03:15:16;;;;;;;7.03;5.40;;;0.90;99.90;;;;;;4954334;29;20288;-73
2023/12/28 03:17:44;;;;;;;6.57;5.43;;;0.90;99.90;;;;;;4954218;29;20212;-72
2023/12/28 03:20:11;;;;;;;6.60;5.27;;;0.80;99.90;;;;;;4954163;29;20225;-73
2023/12/28 03:22:38;;;;;;;7.97;5.83;;;0.70;99.90;;;;;;4954318;29;20264;-73
2023/12/28 03:25:05;;;;;;;7.13;5.07;;;0.80;99.90;;;;;;4954537;29;20209;-73
2023/12/28 03:27:32;;;;;;;7.07;5.13;;;0.70;99.90;;;;;;4954183;29;20201;-72
2023/12/28 03:29:59;;;;;;;8.60;4.87;;;0.70;99.90;;;;;;4954112;29;20229;-72
2023/12/28 03:32:25;;;;;;;8.93;6.03;;;0.70;99.90;;;;;;4953948;29;20201;-73
2023/12/28 03:34:53;;;;;;;8.03;6.00;;;0.70;99.90;;;;;;4954261;29;20201;-72
2023/12/28 03:37:20;;;;;;;10.47;4.93;;;0.60;99.90;;;;;;4957199;28;20205;-73
2023/12/28 03:39:47;;;;;;;8.80;5.60;;;0.80;99.90;;;;;;4957683;29;20233;-73
2023/12/28 03:42:14;;;;;;;7.27;5.83;;;0.70;99.90;;;;;;4957232;29;20236;-73
2023/12/28 03:44:40;;;;;;;7.07;5.40;;;0.70;99.90;;;;;;4957449;29;20248;-72
2023/12/28 03:47:07;;;;;;;9.70;5.60;;;0.80;99.90;;;;;;4957474;29;20256;-72
2023/12/28 03:49:34;;;;;;;5.87;5.17;;;0.70;99.90;;;;;;4957618;29;20208;-73
2023/12/28 03:52:02;;;;;;;7.20;5.40;;;0.80;99.90;;;;;;4957722;29;20259;-73
2023/12/28 03:54:29;;;;;;;7.50;5.43;;;0.70;99.90;;;;;;4957572;29;20252;-73
2023/12/28 03:56:55;;;;;;;7.33;5.10;;;0.80;99.90;;;;;;4957210;29;20208;-73
2023/12/28 03:59:22;;;;;;;6.90;5.20;;;0.80;99.90;;;;;;4957258;29;20233;-72
2023/12/28 04:01:49;;;;;;;6.53;5.33;;;0.80;99.90;;;;;;4957087;29;20660;-73
2023/12/28 04:04:15;;;;;;;7.17;5.60;;;0.80;99.90;;;;;;4957328;29;20261;-73
2023/12/28 04:06:43;;;;;;;6.47;5.13;;;0.80;99.90;;;;;;4957108;29;20272;-73
2023/12/28 04:09:14;;;;;;;7.83;5.03;;;0.70;99.90;;;;;;4957042;29;20653;-73
2023/12/28 04:11:40;;;;;;;6.90;5.00;;;0.70;99.90;;;;;;4956990;29;20620;-73
2023/12/28 04:14:07;;;;;;;6.60;5.03;;;0.80;99.90;;;;;;4956981;29;20264;-73
2023/12/28 04:16:34;;;;;;;7.07;5.73;;;0.90;99.90;;;;;;4957104;29;20205;-73
2023/12/28 04:19:00;;;;;;;7.43;5.57;;;1.00;99.90;;;;;;4956802;29;20351;-73
2023/12/28 04:21:27;;;;;;;8.10;5.70;;;1.00;99.90;;;;;;4956965;29;20248;-73
2023/12/28 04:23:53;;;;;;;8.17;5.80;;;1.10;99.90;;;;;;4956739;29;20208;-73
2023/12/28 04:26:21;;;;;;;8.40;5.60;;;1.00;99.90;;;;;;4956805;29;20264;-73
2023/12/28 04:28:48;;;;;;;10.33;6.63;;;1.00;99.90;;;;;;4956652;29;20735;-73
2023/12/28 04:31:15;;;;;;;11.87;7.57;;;0.90;99.90;;;;;;4956598;29;20597;-73
2023/12/28 04:33:41;;;;;;;9.93;6.53;;;1.00;99.90;;;;;;4956817;29;20232;-73
2023/12/28 04:36:08;;;;;;;10.13;7.00;;;1.00;99.90;;;;;;4956635;29;20248;-72
2023/12/28 04:38:35;;;;;;;11.23;6.80;;;1.00;99.90;;;;;;4956549;29;20577;-73
2023/12/28 04:41:02;;;;;;;7.90;6.57;;;1.00;99.90;;;;;;4956248;29;20236;-72
2023/12/28 04:43:30;;;;;;;9.17;6.13;;;1.10;99.90;;;;;;4956284;29;20295;-73
2023/12/28 04:45:57;;;;;;;12.57;7.43;;;1.10;99.90;;;;;;4956586;29;20205;-73
2023/12/28 04:48:25;;;;;;;9.57;6.67;;;1.10;99.90;;;;;;4955726;28;20609;-73
2023/12/28 04:50:53;;;;;;;11.20;6.83;;;1.10;99.90;;;;;;4956617;29;20534;-73
2023/12/28 04:53:20;;;;;;;9.40;6.90;;;1.20;99.90;;;;;;4956161;29;20300;-73
2023/12/28 04:55:46;;;;;;;12.93;7.57;;;1.20;99.90;;;;;;4956226;29;20201;-73
2023/12/28 04:58:13;;;;;;;9.87;6.63;;;1.10;99.90;;;;;;4956073;29;20657;-73
2023/12/28 05:00:41;;;;;;;11.17;7.10;;;1.20;99.90;;;;;;4956093;29;20236;-73
2023/12/28 05:03:08;;;;;;;8.80;6.47;;;1.20;99.90;;;;;;4956103;29;20530;-73
2023/12/28 05:05:34;;;;;;;7.80;5.63;;;1.30;99.90;;;;;;4956069;29;20319;-73
2023/12/28 05:08:01;;;;;;;9.93;6.20;;;1.40;99.90;;;;;;4956179;29;20252;-74
2023/12/28 05:10:27;;;;;;;13.53;6.67;;;1.50;99.90;;;;;;4959112;29;20204;-74
2023/12/28 05:12:54;;;;;;;12.27;6.60;;;1.50;99.90;;;;;;4956102;29;20232;-74
2023/12/28 05:15:21;;;;;;;9.90;6.30;;;1.60;99.90;;;;;;4955867;29;20205;-74
2023/12/28 05:17:50;;;;;;;12.13;6.30;;;1.60;99.90;;;;;;4955771;29;20542;-74
2023/12/28 05:20:17;;;;;;;8.73;5.67;;;1.70;99.90;;;;;;4955754;29;20652;-74
2023/12/28 05:22:43;;;;;;;8.23;5.90;;;1.80;99.90;;;;;;4955490;29;20205;-74
2023/12/28 05:25:10;;;;;;;9.30;6.27;;;1.80;99.90;;;;;;4955871;29;20201;-74
2023/12/28 05:27:37;;;;;;;8.73;5.90;;;1.90;99.90;;;;;;4955766;29;20276;-74
2023/12/28 05:30:04;;;;;;;7.50;5.67;;;1.90;99.90;;;;;;4955337;29;20286;-74
2023/12/28 05:32:31;;;;;;;7.73;5.97;;;2.00;99.90;;;;;;4955750;29;20201;-74
2023/12/28 05:34:59;;;;;;;8.07;5.97;;;1.90;99.90;;;;;;4955304;29;20620;-73
2023/12/28 05:37:25;;;;;;;7.97;5.60;;;1.90;99.90;;;;;;4955707;29;20205;-73
2023/12/28 05:39:52;;;;;;;9.73;6.87;;;1.90;99.90;;;;;;4955596;29;20287;-73
2023/12/28 05:42:19;;;;;;;10.57;6.90;;;1.90;99.90;;;;;;4955664;29;20239;-73
2023/12/28 05:44:45;;;;;;;11.43;6.70;;;1.90;99.90;;;;;;4955374;29;20205;-73
2023/12/28 05:47:12;;;;;;;22.30;12.13;;;1.90;99.90;;;;;;4955235;29;20208;-74
2023/12/28 05:49:39;;;;;;;40.43;19.23;;;1.90;99.90;;;;;;4955184;29;20206;-73
2023/12/28 05:52:07;;;;;;;36.63;15.10;;;2.00;99.90;;;;;;4955658;29;20205;-74
2023/12/28 05:54:34;;;;;;;42.80;16.77;;;2.10;99.90;;;;;;4955367;29;20232;-74
2023/12/28 05:57:00;;;;;;;42.67;18.83;;;2.30;99.90;;;;;;4956883;29;20232;-73
2023/12/28 05:59:27;;;;;;;37.30;15.97;;;2.50;99.90;;;;;;4959081;28;20619;-73
2023/12/28 06:01:53;;;;;;;22.73;11.57;;;2.60;99.90;;;;;;4954907;29;20277;-73
2023/12/28 06:04:20;;;;;;;16.07;8.10;;;2.80;99.90;;;;;;4954923;29;20200;-74
2023/12/28 06:06:47;;;;;;;11.63;5.90;;;2.90;99.90;;;;;;4955119;29;20205;-73
2023/12/28 06:09:15;;;;;;;11.17;6.00;;;3.00;99.90;;;;;;4955023;29;20205;-74
2023/12/28 06:11:41;;;;;;;8.40;5.13;;;3.20;99.90;;;;;;4954994;29;20242;-73
2023/12/28 06:14:08;;;;;;;6.57;4.77;;;3.20;99.90;;;;;;4954945;29;20202;-74
2023/12/28 06:16:35;;;;;;;5.87;4.77;;;3.30;99.90;;;;;;4954864;29;20294;-74
2023/12/28 06:19:02;;;;;;;10.13;5.00;;;3.30;99.90;;;;;;4954375;29;20223;-73
2023/12/28 06:21:30;;;;;;;6.47;4.63;;;3.30;99.90;;;;;;4954968;29;20235;-73
2023/12/28 06:23:56;;;;;;;5.47;4.63;;;3.30;99.90;;;;;;4954964;29;20229;-73
2023/12/28 06:26:25;;;;;;;5.80;4.40;;;3.40;99.90;;;;;;4954603;29;20713;-73
2023/12/28 06:28:51;;;;;;;6.40;4.33;;;3.40;99.90;;;;;;4954732;29;20274;-73
2023/12/28 06:31:18;;;;;;;6.83;4.90;;;3.40;99.90;;;;;;4954667;29;20210;-74
2023/12/28 06:33:44;;;;;;;5.17;4.30;;;3.50;99.90;;;;;;4954786;29;20656;-73
2023/12/28 06:36:12;;;;;;;6.20;4.73;;;3.50;99.90;;;;;;4954807;29;20573;-73
2023/12/28 06:38:39;;;;;;;5.63;4.13;;;3.50;99.90;;;;;;4954583;29;20252;-72
2023/12/28 06:41:11;;;;;;;5.87;4.67;;;3.60;99.90;;;;;;4954514;29;20232;-73
2023/12/28 06:43:39;;;;;;;6.63;4.63;;;3.60;99.90;;;;;;4954444;29;20328;-72
2023/12/28 06:46:06;;;;;;;5.63;4.43;;;3.60;99.90;;;;;;4954458;29;20207;-73
2023/12/28 06:48:33;;;;;;;7.00;5.00;;;3.60;99.90;;;;;;4954736;29;20199;-72
2023/12/28 06:50:59;;;;;;;9.77;5.17;;;3.60;99.90;;;;;;4954516;29;20200;-72
2023/12/28 06:53:26;;;;;;;8.67;5.37;;;3.60;99.90;;;;;;4954569;29;20205;-72
2023/12/28 06:55:53;;;;;;;7.87;4.93;;;3.60;99.90;;;;;;4954429;29;20644;-72
2023/12/28 06:58:19;;;;;;;6.60;5.13;;;3.70;99.90;;;;;;4954393;29;20263;-73
2023/12/28 07:00:47;;;;;;;7.17;5.20;;;3.70;99.90;;;;;;4954349;29;20229;-73
2023/12/28 07:03:14;;;;;;;6.47;4.83;;;3.80;99.90;;;;;;4954593;29;20203;-73
2023/12/28 07:05:40;;;;;;;6.53;5.03;;;3.80;99.90;;;;;;4954562;29;20209;-74
2023/12/28 07:08:07;;;;;;;7.93;5.30;;;3.90;99.90;;;;;;4954071;29;20204;-74
2023/12/28 07:10:34;;;;;;;8.13;5.63;;;3.90;99.90;;;;;;4954735;28;20225;-73
2023/12/28 07:13:00;;;;;;;8.47;5.37;;;4.00;99.90;;;;;;4957688;29;20260;-73
2023/12/28 07:15:27;;;;;;;7.83;5.57;;;4.00;99.90;;;;;;4957945;29;20605;-73
2023/12/28 07:17:55;;;;;;;8.60;6.40;;;4.10;99.90;;;;;;4958226;29;20228;-73
2023/12/28 07:20:22;;;;;;;9.27;5.23;;;4.10;99.90;;;;;;4958191;29;20228;-73
2023/12/28 07:22:48;;;;;;;11.97;6.20;;;4.10;99.90;;;;;;4942349;29;20201;-73
2023/12/28 07:25:15;;;;;;;12.27;5.70;;;4.10;99.90;;;;;;4938732;29;20276;-73
2023/12/28 07:27:42;;;;;;;7.83;5.77;;;4.10;99.90;;;;;;4938506;29;20206;-73
2023/12/28 07:30:09;;;;;;;7.07;5.87;;;4.20;99.90;;;;;;4939085;29;20228;-73
2023/12/28 07:32:36;;;;;;;7.20;5.80;;;4.20;99.90;;;;;;4938730;29;20206;-73
2023/12/28 07:35:04;;;;;;;7.10;5.63;;;4.30;99.90;;;;;;4938663;29;20209;-73
2023/12/28 07:37:31;;;;;;;7.83;5.70;;;4.40;99.90;;;;;;4939662;29;20202;-74
2023/12/28 07:39:58;;;;;;;7.90;5.93;;;4.50;99.90;;;;;;4957675;29;20225;-72
2023/12/28 07:42:24;;;;;;;7.57;6.00;;;4.50;99.90;;;;;;4957389;29;20541;-74
2023/12/28 07:44:51;;;;;;;8.03;6.27;;;4.60;99.90;;;;;;4957488;29;20732;-73
2023/12/28 07:47:18;;;;;;;7.67;5.70;;;4.50;99.90;;;;;;4957612;29;20205;-74
2023/12/28 07:49:44;;;;;;;7.53;6.00;;;4.60;99.90;;;;;;4957637;29;20208;-74
2023/12/28 07:52:12;;;;;;;8.43;6.30;;;4.50;99.90;;;;;;4957338;29;20261;-73
2023/12/28 07:54:39;;;;;;;8.27;6.27;;;4.50;99.90;;;;;;4957069;29;20255;-73
2023/12/28 07:57:06;;;;;;;7.93;5.97;;;4.50;99.90;;;;;;4957700;29;20260;-73
2023/12/28 07:59:32;;;;;;;12.70;7.20;;;4.50;99.90;;;;;;4957388;29;20208;-73
2023/12/28 08:01:59;;;;;;;8.13;6.40;;;4.50;99.90;;;;;;4957027;29;20288;-73
2023/12/28 08:04:26;;;;;;;8.63;6.43;;;4.50;99.90;;;;;;4956974;29;20216;-73
2023/12/28 08:06:52;;;;;;;9.30;6.70;;;4.50;99.90;;;;;;4957312;29;20205;-74
2023/12/28 08:09:20;;;;;;;12.50;7.70;;;4.60;99.90;;;;;;4957067;29;20657;-73
2023/12/28 08:11:47;;;;;;;8.90;7.20;;;4.60;99.90;;;;;;4957183;29;20276;-73
2023/12/28 08:14:14;;;;;;;9.13;6.80;;;4.60;99.90;;;;;;4956829;29;20264;-73
2023/12/28 08:16:40;;;;;;;9.57;6.73;;;4.70;99.90;;;;;;4956931;29;20197;-74
2023/12/28 08:19:07;;;;;;;9.03;7.30;;;4.70;99.90;;;;;;4956716;29;20597;-74
2023/12/28 08:21:34;;;;;;;11.20;7.83;;;4.80;99.90;;;;;;4956659;28;20228;-74
2023/12/28 08:24:00;;;;;;;8.57;6.57;;;4.80;99.90;;;;;;4955776;29;20253;-74
2023/12/28 08:26:28;;;;;;;8.67;6.60;;;4.90;99.90;;;;;;4956720;29;20569;-74
2023/12/28 08:28:55;;;;;;;8.07;6.73;;;5.00;99.90;;;;;;4956817;29;20256;-74
2023/12/28 08:31:22;;;;;;;8.07;6.47;;;5.00;99.90;;;;;;4956591;29;20203;-74
2023/12/28 08:33:49;;;;;;;10.23;6.70;;;5.10;99.90;;;;;;4956643;29;20209;-74
2023/12/28 08:36:17;;;;;;;6.73;5.73;;;5.10;99.90;;;;;;4956644;29;20205;-74
2023/12/28 08:38:44;;;;;;;8.03;6.37;;;5.20;99.90;;;;;;4956591;29;20208;-74
2023/12/28 08:41:19;;;;;;;8.13;5.90;;;5.20;99.90;;;;;;4956727;29;20288;-74
2023/12/28 08:43:47;;;;;;;8.53;6.40;;;5.30;99.90;;;;;;4956346;29;20240;-74
2023/12/28 08:46:14;;;;;;;9.50;6.30;;;5.30;99.90;;;;;;4956531;29;20257;-73
2023/12/28 08:48:41;;;;;;;7.67;5.83;;;5.40;99.90;;;;;;4956808;29;20277;-73
2023/12/28 08:51:07;;;;;;;16.43;6.93;;;5.50;99.90;;;;;;4956772;29;20316;-73
2023/12/28 08:53:34;;;;;;;7.93;6.17;;;5.50;99.90;;;;;;4956684;29;20212;-74
2023/12/28 08:56:01;;;;;;;7.73;5.80;;;5.50;99.90;;;;;;4956575;29;20622;-77
2023/12/28 08:58:27;;;;;;;8.70;6.50;;;5.50;99.90;;;;;;4956320;29;20204;-74
2023/12/28 09:00:55;;;;;;;10.23;5.50;;;5.60;99.90;;;;;;4956031;29;20585;-74
2023/12/28 09:03:22;;;;;;;8.33;5.70;;;5.60;99.90;;;;;;4955992;29;20205;-74
2023/12/28 09:05:49;;;;;;;9.07;6.27;;;5.50;99.90;;;;;;4956143;29;20244;-74
2023/12/28 09:08:16;;;;;;;6.23;4.50;;;5.60;99.90;;;;;;4956240;29;20200;-79
2023/12/28 09:10:43;;;;;;;9.37;5.80;;;5.70;99.90;;;;;;4956050;29;20209;-73
2023/12/28 09:13:16;;;;;;;6.93;5.30;;;5.70;99.90;;;;;;4955854;29;20205;-73
2023/12/28 09:15:43;;;;;;;6.60;5.10;;;5.80;99.90;;;;;;4955916;29;20295;-71
2023/12/28 09:18:11;;;;;;;7.37;5.20;;;5.90;99.90;;;;;;4955390;29;20558;-71
2023/12/28 09:20:37;;;;;;;8.77;6.00;;;6.10;99.90;;;;;;4955680;29;20276;-71
2023/12/28 09:23:05;;;;;;;7.33;4.27;;;6.40;99.90;;;;;;4955784;29;20278;-72
2023/12/28 09:25:32;;;;;;;4.57;3.27;;;6.80;99.90;;;;;;4955574;29;20205;-72
2023/12/28 09:27:59;;;;;;;3.70;2.80;;;7.10;99.90;;;;;;4960876;29;20201;-72
2023/12/28 09:30:26;;;;;;;6.80;5.63;;;7.30;99.90;;;;;;4955393;29;20209;-72
2023/12/28 09:32:53;;;;;;;4.23;3.00;;;7.50;99.90;;;;;;4956046;29;20252;-73
2023/12/28 09:35:21;;;;;;;5.33;4.00;;;7.60;99.90;;;;;;4955363;28;20208;-73
2023/12/28 09:37:48;;;;;;;3.93;3.20;;;7.60;99.90;;;;;;4955920;29;20202;-72
2023/12/28 09:40:15;;;;;;;5.10;2.90;;;7.60;99.90;;;;;;4955511;29;20203;-72
2023/12/28 09:42:52;;;;;;;4.17;3.10;;;7.80;99.90;;;;;;4955278;29;20240;-73
2023/12/28 09:45:20;;;;;;;4.77;3.60;;;7.80;99.90;;;;;;4955337;29;20207;-73
2023/12/28 09:47:50;;;;;;;4.67;3.43;;;7.90;99.90;;;;;;4955354;29;20199;-72
2023/12/28 09:50:19;;;;;;;5.77;3.37;;;8.00;99.90;;;;;;4955408;29;20281;-72
2023/12/28 09:52:47;;;;;;;7.60;4.17;;;8.10;99.90;;;;;;4955460;29;20206;-73
2023/12/28 09:55:13;;;;;;;4.63;3.10;;;8.10;99.90;;;;;;4955189;29;20609;-74
2023/12/28 09:57:41;;;;;;;4.10;3.03;;;8.10;99.90;;;;;;4955061;29;20610;-73
2023/12/28 10:00:11;;;;;;;4.30;2.60;;;8.20;99.90;;;;;;4955027;29;20756;-73
2023/12/28 10:02:39;;;;;;;4.73;2.80;;;8.30;99.90;;;;;;4955077;29;20232;-73
2023/12/28 10:05:07;;;;;;;6.00;3.70;;;8.30;99.90;;;;;;4955075;29;20233;-74
2023/12/28 10:07:40;;;;;;;3.63;3.10;;;8.40;99.90;;;;;;4954996;29;20264;-73
2023/12/28 10:10:09;;;;;;;4.37;3.20;;;8.40;99.90;;;;;;4955057;29;20276;-73
2023/12/28 10:12:36;;;;;;;7.13;3.13;;;8.50;99.90;;;;;;4955140;29;20213;-73
2023/12/28 10:15:04;;;;;;;4.27;3.60;;;8.50;99.90;;;;;;4955086;29;20235;-72
2023/12/28 10:17:31;;;;;;;8.10;5.40;;;8.40;99.90;;;;;;4954945;29;20261;-73
2023/12/28 10:20:03;;;;;;;5.53;3.50;;;8.40;99.90;;;;;;4954880;29;20264;-72
2023/12/28 10:22:30;;;;;;;5.70;3.80;;;8.40;99.90;;;;;;4954722;29;20235;-73
2023/12/28 10:24:56;;;;;;;5.27;3.30;;;8.40;99.90;;;;;;4954753;29;20268;-72
2023/12/28 10:27:24;;;;;;;5.70;2.90;;;8.40;99.90;;;;;;4955019;29;20209;-73
2023/12/28 10:29:54;;;;;;;4.13;3.10;;;8.40;99.90;;;;;;4954833;29;20248;-72
2023/12/28 10:32:21;;;;;;;3.67;2.70;;;8.40;99.90;;;;;;4954702;29;20607;-72
2023/12/28 10:34:47;;;;;;;4.43;3.30;;;8.40;99.90;;;;;;4954611;29;20204;-72
2023/12/28 10:37:15;;;;;;;5.73;3.80;;;8.40;99.90;;;;;;4954569;29;20614;-73
2023/12/28 10:39:46;;;;;;;6.47;4.63;;;8.50;99.90;;;;;;4954798;29;20268;-72
2023/12/28 10:42:17;;;;;;;4.93;3.70;;;8.50;99.90;;;;;;4954471;29;20331;-73
2023/12/28 10:44:51;;;;;;;3.57;2.90;;;8.50;99.90;;;;;;4954592;28;20200;-72
2023/12/28 10:47:20;;;;;;;3.77;2.97;;;8.60;99.90;;;;;;4958044;29;20205;-72
2023/12/28 10:49:53;;;;;;;7.20;5.97;;;8.60;99.90;;;;;;4958531;29;20200;-73
2023/12/28 10:52:21;;;;;;;10.37;8.33;;;8.60;99.90;;;;;;4958691;29;20256;-73
2023/12/28 10:54:55;;;;;;;6.80;5.33;;;8.60;99.90;;;;;;4958517;29;20201;-73
2023/12/28 10:57:27;;;;;;;8.80;6.53;;;8.60;99.90;;;;;;4958482;29;20216;-73
2023/12/28 11:00:01;;;;;;;6.40;4.50;;;8.70;99.90;;;;;;4958538;29;20197;-73
2023/12/28 11:02:33;;;;;;;8.10;6.13;;;8.80;99.90;;;;;;4958203;29;20242;-73
2023/12/28 11:05:01;;;;;;;6.47;3.93;;;8.90;99.90;;;;;;4958752;29;20200;-73
2023/12/28 11:07:32;;;;;;;8.13;5.20;;;8.90;99.90;;;;;;4958231;29;20205;-73
2023/12/28 11:10:01;;;;;;;5.00;4.00;;;8.90;99.90;;;;;;4958243;29;20208;-72
2023/12/28 11:12:28;;;;;;;6.80;3.57;;;8.90;99.90;;;;;;4958118;29;20617;-73
2023/12/28 11:14:58;;;;;;;3.07;2.40;;;8.90;99.90;;;;;;4958190;29;20280;-73
2023/12/28 11:17:25;;;;;;;3.93;2.77;;;8.90;99.90;;;;;;4958192;29;20205;-73
2023/12/28 11:19:53;;;;;;;3.20;2.90;;;8.90;99.90;;;;;;4958115;29;20205;-72
2023/12/28 11:22:21;;;;;;;3.97;2.70;;;9.00;99.90;;;;;;4957485;29;20217;-72
2023/12/28 11:24:47;;;;;;;2.90;2.60;;;9.10;99.90;;;;;;4957681;29;20602;-72
2023/12/28 11:27:14;;;;;;;2.60;2.27;;;9.10;99.90;;;;;;4957698;29;20589;-72
2023/12/28 11:29:44;;;;;;;3.03;2.50;;;9.30;99.90;;;;;;4957804;29;20209;-72
2023/12/28 11:32:12;;;;;;;3.33;2.70;;;9.40;99.90;;;;;;4957803;29;20740;-72
2023/12/28 11:34:38;;;;;;;3.57;2.33;;;9.40;99.90;;;;;;4957679;29;20201;-72
2023/12/28 11:37:08;;;;;;;3.37;2.60;;;9.50;99.90;;;;;;4957586;29;20257;-72
2023/12/28 11:39:36;;;;;;;3.43;2.30;;;9.60;99.90;;;;;;4956586;28;20248;-71
2023/12/28 11:42:03;;;;;;;3.90;2.30;;;9.60;99.90;;;;;;4957139;29;20283;-72
2023/12/28 11:44:31;;;;;;;2.27;2.00;;;9.60;99.90;;;;;;4957823;29;20236;-72
2023/12/28 11:46:57;;;;;;;2.77;2.10;;;9.60;99.90;;;;;;4957161;29;20673;-72
2023/12/28 11:49:28;;;;;;;3.40;2.40;;;9.50;99.90;;;;;;4957188;29;20256;-72
2023/12/28 11:51:57;;;;;;;3.97;2.77;;;9.40;99.90;;;;;;4957223;29;20557;-72
2023/12/28 11:54:24;;;;;;;6.10;2.30;;;9.40;99.90;;;;;;4957054;29;20249;-72
2023/12/28 11:56:51;;;;;;;2.60;2.30;;;9.50;99.90;;;;;;4957213;28;20252;-72
2023/12/28 11:59:17;;;;;;;3.10;2.40;;;9.40;99.90;;;;;;4957307;29;20207;-72
2023/12/28 12:01:44;;;;;;;5.67;2.33;;;9.40;99.90;;;;;;4957145;29;20292;-72
2023/12/28 12:04:12;;;;;;;3.97;2.80;;;9.40;99.90;;;;;;4957138;29;20204;-72
2023/12/28 12:06:40;;;;;;;3.43;2.83;;;9.40;99.90;;;;;;4956999;29;20201;-72
2023/12/28 12:09:07;;;;;;;4.37;3.60;;;9.30;99.90;;;;;;4956781;29;20205;-73
2023/12/28 12:11:34;;;;;;;8.00;5.33;;;9.30;99.90;;;;;;4957311;29;20205;-73
2023/12/28 12:14:00;;;;;;;4.30;3.90;;;9.30;99.90;;;;;;4956855;29;20654;-71
2023/12/28 12:16:27;;;;;;;4.73;3.03;;;9.40;99.90;;;;;;4956943;29;20248;-71
2023/12/28 12:18:56;;;;;;;7.57;5.20;;;9.40;99.90;;;;;;4956911;29;20272;-72
2023/12/28 12:21:24;;;;;;;3.80;3.40;;;9.40;99.90;;;;;;4956719;29;20567;-73
2023/12/28 12:23:52;;;;;;;10.37;7.67;;;9.40;99.90;;;;;;4957048;29;20260;-74
2023/12/28 12:26:19;;;;;;;11.27;8.57;;;9.30;99.90;;;;;;4956855;29;20205;-75
2023/12/28 12:28:45;;;;;;;4.00;2.93;;;9.30;99.90;;;;;;4956832;29;20201;-75
2023/12/28 12:31:12;;;;;;;8.33;6.63;;;9.30;99.90;;;;;;4956740;29;20253;-74
2023/12/28 12:33:40;;;;;;;12.50;8.77;;;9.30;99.90;;;;;;4956619;29;20248;-74
2023/12/28 12:36:08;;;;;;;7.00;4.97;;;9.30;99.90;;;;;;4956572;29;20217;-74
2023/12/28 12:38:35;;;;;;;5.33;2.33;;;9.30;99.90;;;;;;4956566;29;20665;-73
2023/12/28 12:41:03;;;;;;;5.60;2.70;;;9.30;99.90;;;;;;4956685;29;20205;-74
2023/12/28 12:43:30;;;;;;;2.67;2.40;;;9.30;99.90;;;;;;4956291;29;20269;-74
2023/12/28 12:45:57;;;;;;;6.10;3.30;;;9.40;99.90;;;;;;4956517;29;20205;-74
2023/12/28 12:48:23;;;;;;;6.27;5.03;;;9.40;99.90;;;;;;4956368;29;20201;-73
2023/12/28 12:50:50;;;;;;;4.60;3.13;;;9.40;99.90;;;;;;4956535;29;20263;-73
2023/12/28 12:53:17;;;;;;;5.13;3.10;;;9.40;99.90;;;;;;4956615;29;20261;-75
2023/12/28 12:55:45;;;;;;;3.00;2.60;;;9.30;99.90;;;;;;4958015;29;20260;-76